sensor_id;sensor_type;location;lat;lon;timestamp;pressure;altitude;pressure_sealevel;temperature;humidity
78016;BME280;67223;51.102;5.882;2023-04-24T00:00:15;99984.31;;;9.99;74.03
78016;BME280;67223;51.102;5.882;2023-04-24T00:02:43;99990.72;;;10.06;73.88
78016;BME280;67223;51.102;5.882;2023-04-24T00:05:12;99988.22;;;10.14;73.38
78016;BME280;67223;51.102;5.882;2023-04-24T00:07:39;99997.78;;;9.98;73.69
78016;BME280;67223;51.102;5.882;2023-04-24T00:10:06;99993.16;;;10.00;73.20
78016;BME280;67223;51.102;5.882;2023-04-24T00:12:31;99996.06;;;10.06;73.80
78016;BME280;67223;51.102;5.882;2023-04-24T00:14:57;99996.78;;;10.08;73.70
78016;BME280;67223;51.102;5.882;2023-04-24T00:17:22;99998.63;;;9.88;73.64
78016;BME280;67223;51.102;5.882;2023-04-24T00:19:48;100002.56;;;9.84;74.17
78016;BME280;67223;51.102;5.882;2023-04-24T00:22:16;100002.44;;;9.86;74.21
78016;BME280;67223;51.102;5.882;2023-04-24T00:24:42;100003.53;;;10.03;74.83
78016;BME280;67223;51.102;5.882;2023-04-24T00:27:07;100001.41;;;9.77;74.78
78016;BME280;67223;51.102;5.882;2023-04-24T00:29:32;99997.94;;;9.96;74.14
78016;BME280;67223;51.102;5.882;2023-04-24T00:31:58;100015.19;;;9.92;74.28
78016;BME280;67223;51.102;5.882;2023-04-24T00:34:23;100004.81;;;9.89;74.30
78016;BME280;67223;51.102;5.882;2023-04-24T00:36:49;100002.97;;;9.70;74.54
78016;BME280;67223;51.102;5.882;2023-04-24T00:39:21;100000.03;;;9.64;74.52
78016;BME280;67223;51.102;5.882;2023-04-24T00:41:47;99993.00;;;9.63;74.88
78016;BME280;67223;51.102;5.882;2023-04-24T00:44:13;99996.81;;;9.70;74.67
78016;BME280;67223;51.102;5.882;2023-04-24T00:46:39;99997.47;;;9.72;74.93
78016;BME280;67223;51.102;5.882;2023-04-24T00:49:05;100003.41;;;9.85;74.81
78016;BME280;67223;51.102;5.882;2023-04-24T00:51:31;100004.50;;;9.82;75.26
78016;BME280;67223;51.102;5.882;2023-04-24T00:53:58;100002.41;;;9.67;74.93
78016;BME280;67223;51.102;5.882;2023-04-24T00:56:23;100001.69;;;9.55;75.59
78016;BME280;67223;51.102;5.882;2023-04-24T00:58:49;99998.75;;;9.58;75.51
78016;BME280;67223;51.102;5.882;2023-04-24T01:01:15;99990.50;;;9.71;75.61
78016;BME280;67223;51.102;5.882;2023-04-24T01:03:41;100006.06;;;9.56;75.47
78016;BME280;67223;51.102;5.882;2023-04-24T01:06:06;100005.63;;;9.61;76.04
78016;BME280;67223;51.102;5.882;2023-04-24T01:08:32;99996.38;;;9.65;76.27
78016;BME280;67223;51.102;5.882;2023-04-24T01:10:58;100000.84;;;9.45;75.91
78016;BME280;67223;51.102;5.882;2023-04-24T01:13:24;100007.47;;;9.60;75.87
78016;BME280;67223;51.102;5.882;2023-04-24T01:15:49;100005.63;;;9.61;75.73
78016;BME280;67223;51.102;5.882;2023-04-24T01:18:15;100004.78;;;9.50;76.03
78016;BME280;67223;51.102;5.882;2023-04-24T01:20:42;99995.41;;;9.66;75.98
78016;BME280;67223;51.102;5.882;2023-04-24T01:23:09;100001.41;;;9.48;76.30
78016;BME280;67223;51.102;5.882;2023-04-24T01:25:34;99997.22;;;9.56;76.12
78016;BME280;67223;51.102;5.882;2023-04-24T01:28:00;99992.69;;;9.46;76.02
78016;BME280;67223;51.102;5.882;2023-04-24T01:30:27;99982.88;;;9.47;76.48
78016;BME280;67223;51.102;5.882;2023-04-24T01:32:53;99992.97;;;9.43;76.05
78016;BME280;67223;51.102;5.882;2023-04-24T01:35:18;99989.47;;;9.52;76.17
78016;BME280;67223;51.102;5.882;2023-04-24T01:37:44;99993.84;;;9.54;76.20
78016;BME280;67223;51.102;5.882;2023-04-24T01:40:09;99993.81;;;9.44;75.97
78016;BME280;67223;51.102;5.882;2023-04-24T01:42:35;100003.50;;;9.45;76.27
78016;BME280;67223;51.102;5.882;2023-04-24T01:45:02;99999.72;;;9.47;76.48
78016;BME280;67223;51.102;5.882;2023-04-24T01:47:29;99999.28;;;9.42;76.42
78016;BME280;67223;51.102;5.882;2023-04-24T01:49:55;99987.34;;;9.46;76.53
78016;BME280;67223;51.102;5.882;2023-04-24T01:52:20;100001.41;;;9.77;75.93
78016;BME280;67223;51.102;5.882;2023-04-24T01:54:46;100004.19;;;9.57;76.00
78016;BME280;67223;51.102;5.882;2023-04-24T01:57:11;99997.75;;;9.40;76.22
78016;BME280;67223;51.102;5.882;2023-04-24T01:59:37;99997.47;;;9.43;76.66
78016;BME280;67223;51.102;5.882;2023-04-24T02:02:03;99995.66;;;9.53;76.17
78016;BME280;67223;51.102;5.882;2023-04-24T02:04:28;99993.28;;;9.50;76.60
78016;BME280;67223;51.102;5.882;2023-04-24T02:06:54;99997.47;;;9.43;76.91
78016;BME280;67223;51.102;5.882;2023-04-24T02:09:20;99994.97;;;9.61;76.66
78016;BME280;67223;51.102;5.882;2023-04-24T02:11:45;99990.63;;;9.60;76.59
78016;BME280;67223;51.102;5.882;2023-04-24T02:14:11;99994.97;;;9.61;76.65
78016;BME280;67223;51.102;5.882;2023-04-24T02:16:36;99995.50;;;9.45;76.06
78016;BME280;67223;51.102;5.882;2023-04-24T02:19:02;99991.28;;;9.42;76.36
78016;BME280;67223;51.102;5.882;2023-04-24T02:21:28;99987.66;;;9.63;78.26
78016;BME280;67223;51.102;5.882;2023-04-24T02:23:54;99992.13;;;9.43;76.83
78016;BME280;67223;51.102;5.882;2023-04-24T02:26:19;99992.56;;;9.38;77.13
78016;BME280;67223;51.102;5.882;2023-04-24T02:28:45;99995.22;;;9.38;76.95
78016;BME280;67223;51.102;5.882;2023-04-24T02:31:10;99992.00;;;9.54;76.84
78016;BME280;67223;51.102;5.882;2023-04-24T02:33:36;99990.84;;;9.37;76.93
78016;BME280;67223;51.102;5.882;2023-04-24T02:36:02;99992.66;;;9.27;76.99
78016;BME280;67223;51.102;5.882;2023-04-24T02:38:28;99994.94;;;9.41;76.72
78016;BME280;67223;51.102;5.882;2023-04-24T02:40:54;99994.81;;;9.62;76.69
78016;BME280;67223;51.102;5.882;2023-04-24T02:43:19;99995.34;;;9.37;76.69
78016;BME280;67223;51.102;5.882;2023-04-24T02:45:45;99993.28;;;9.50;76.99
78016;BME280;67223;51.102;5.882;2023-04-24T02:48:10;99996.63;;;9.52;76.99
78016;BME280;67223;51.102;5.882;2023-04-24T02:50:36;99994.97;;;9.51;76.44
78016;BME280;67223;51.102;5.882;2023-04-24T02:53:01;99988.50;;;9.44;76.71
78016;BME280;67223;51.102;5.882;2023-04-24T02:55:27;99991.28;;;9.42;77.25
78016;BME280;67223;51.102;5.882;2023-04-24T02:57:53;99986.53;;;9.46;77.09
78016;BME280;67223;51.102;5.882;2023-04-24T03:00:18;99997.22;;;9.46;77.08
78016;BME280;67223;51.102;5.882;2023-04-24T03:05:20;99993.94;;;9.33;77.22
78016;BME280;67223;51.102;5.882;2023-04-24T03:07:46;99994.88;;;9.22;77.66
78016;BME280;67223;51.102;5.882;2023-04-24T03:10:11;99993.84;;;9.54;76.34
78016;BME280;67223;51.102;5.882;2023-04-24T03:12:36;99997.88;;;9.38;77.15
78016;BME280;67223;51.102;5.882;2023-04-24T03:15:02;99994.38;;;9.38;77.41
78016;BME280;67223;51.102;5.882;2023-04-24T03:17:28;99998.44;;;9.42;77.83
78016;BME280;67223;51.102;5.882;2023-04-24T03:19:53;100004.19;;;9.37;77.08
78016;BME280;67223;51.102;5.882;2023-04-24T03:22:18;100005.19;;;9.36;77.19
78016;BME280;67223;51.102;5.882;2023-04-24T03:24:44;100005.13;;;9.27;77.47
78016;BME280;67223;51.102;5.882;2023-04-24T03:27:09;100006.13;;;9.26;77.63
78016;BME280;67223;51.102;5.882;2023-04-24T03:29:35;100006.28;;;9.24;76.64
78016;BME280;67223;51.102;5.882;2023-04-24T03:32:00;100006.69;;;9.20;76.69
78016;BME280;67223;51.102;5.882;2023-04-24T03:34:26;100000.94;;;9.24;77.36
78016;BME280;67223;51.102;5.882;2023-04-24T03:36:51;100009.94;;;9.33;76.77
78016;BME280;67223;51.102;5.882;2023-04-24T03:39:17;100007.53;;;9.20;76.69
78016;BME280;67223;51.102;5.882;2023-04-24T03:41:43;100011.50;;;9.35;76.74
78016;BME280;67223;51.102;5.882;2023-04-24T03:44:08;100013.97;;;9.27;76.46
78016;BME280;67223;51.102;5.882;2023-04-24T03:46:34;100012.94;;;9.09;76.79
78016;BME280;67223;51.102;5.882;2023-04-24T03:48:59;100010.09;;;9.41;76.15
78016;BME280;67223;51.102;5.882;2023-04-24T03:51:25;100015.47;;;9.01;77.81
78016;BME280;67223;51.102;5.882;2023-04-24T03:53:52;100018.81;;;9.03;78.24
78016;BME280;67223;51.102;5.882;2023-04-24T03:56:18;100015.91;;;9.06;78.56
78016;BME280;67223;51.102;5.882;2023-04-24T03:58:43;100014.78;;;9.08;79.02
78016;BME280;67223;51.102;5.882;2023-04-24T04:01:09;100020.06;;;8.99;79.06
78016;BME280;67223;51.102;5.882;2023-04-24T04:03:35;100020.59;;;8.93;79.47
78016;BME280;67223;51.102;5.882;2023-04-24T04:06:01;100015.09;;;8.85;80.33
78016;BME280;67223;51.102;5.882;2023-04-24T04:08:26;100014.69;;;8.89;81.02
78016;BME280;67223;51.102;5.882;2023-04-24T04:10:51;100013.78;;;8.70;80.72
78016;BME280;67223;51.102;5.882;2023-04-24T04:13:17;100014.38;;;8.83;81.57
78016;BME280;67223;51.102;5.882;2023-04-24T04:15:42;100020.25;;;8.77;81.76
78016;BME280;67223;51.102;5.882;2023-04-24T04:18:08;100013.06;;;8.68;82.05
78016;BME280;67223;51.102;5.882;2023-04-24T04:20:33;100018.97;;;8.71;82.46
78016;BME280;67223;51.102;5.882;2023-04-24T04:22:59;100017.44;;;8.78;82.20
78016;BME280;67223;51.102;5.882;2023-04-24T04:25:24;100020.78;;;8.71;82.76
78016;BME280;67223;51.102;5.882;2023-04-24T04:27:49;100023.84;;;8.66;82.15
78016;BME280;67223;51.102;5.882;2023-04-24T04:30:16;100028.91;;;8.69;82.64
78016;BME280;67223;51.102;5.882;2023-04-24T04:32:41;100027.81;;;8.72;82.31
78016;BME280;67223;51.102;5.882;2023-04-24T04:35:07;100035.16;;;8.58;82.33
78016;BME280;67223;51.102;5.882;2023-04-24T04:37:32;100034.63;;;8.95;81.22
78016;BME280;67223;51.102;5.882;2023-04-24T04:39:59;100035.44;;;8.86;81.70
78016;BME280;67223;51.102;5.882;2023-04-24T04:42:25;100034.66;;;8.74;82.98
78016;BME280;67223;51.102;5.882;2023-04-24T04:44:52;100031.97;;;8.64;83.39
78016;BME280;67223;51.102;5.882;2023-04-24T04:47:18;100033.31;;;8.80;83.64
78016;BME280;67223;51.102;5.882;2023-04-24T04:49:45;100033.06;;;8.62;83.72
78016;BME280;67223;51.102;5.882;2023-04-24T04:52:10;100028.91;;;8.69;83.05
78016;BME280;67223;51.102;5.882;2023-04-24T04:54:36;100046.28;;;9.03;83.58
78016;BME280;67223;51.102;5.882;2023-04-24T04:57:01;100039.31;;;8.82;82.51
78016;BME280;67223;51.102;5.882;2023-04-24T04:59:27;100025.28;;;8.70;83.41
78016;BME280;67223;51.102;5.882;2023-04-24T05:01:52;100026.63;;;8.64;82.93
78016;BME280;67223;51.102;5.882;2023-04-24T05:04:18;100037.81;;;9.19;83.23
78016;BME280;67223;51.102;5.882;2023-04-24T05:06:43;100027.50;;;11.25;78.66
78016;BME280;67223;51.102;5.882;2023-04-24T05:09:09;100038.06;;;10.04;77.87
78016;BME280;67223;51.102;5.882;2023-04-24T05:11:34;100042.19;;;9.30;79.16
78016;BME280;67223;51.102;5.882;2023-04-24T05:14:00;100046.25;;;8.94;80.74
78016;BME280;67223;51.102;5.882;2023-04-24T05:16:26;100038.88;;;8.77;81.73
78016;BME280;67223;51.102;5.882;2023-04-24T05:18:51;100050.19;;;8.69;82.08
78016;BME280;67223;51.102;5.882;2023-04-24T05:21:17;100055.19;;;8.62;82.48
78016;BME280;67223;51.102;5.882;2023-04-24T05:23:42;100052.34;;;8.75;83.28
78016;BME280;67223;51.102;5.882;2023-04-24T05:26:08;100054.44;;;8.51;83.38
78016;BME280;67223;51.102;5.882;2023-04-24T05:28:33;100057.44;;;8.67;83.38
78016;BME280;67223;51.102;5.882;2023-04-24T05:30:59;100065.25;;;8.59;83.69
78016;BME280;67223;51.102;5.882;2023-04-24T05:33:25;100079.88;;;8.64;84.05
78016;BME280;67223;51.102;5.882;2023-04-24T05:35:50;100075.91;;;8.59;83.75
78016;BME280;67223;51.102;5.882;2023-04-24T05:38:16;100087.47;;;8.69;84.92
78016;BME280;67223;51.102;5.882;2023-04-24T05:40:45;100079.06;;;8.74;84.24
78016;BME280;67223;51.102;5.882;2023-04-24T05:43:11;100079.28;;;8.40;85.19
78016;BME280;67223;51.102;5.882;2023-04-24T05:45:38;100087.66;;;8.56;84.85
78016;BME280;67223;51.102;5.882;2023-04-24T05:48:03;100097.06;;;8.60;85.03
78016;BME280;67223;51.102;5.882;2023-04-24T05:50:29;100086.69;;;8.57;84.83
78016;BME280;67223;51.102;5.882;2023-04-24T05:52:55;100093.69;;;8.79;83.62
78016;BME280;67223;51.102;5.882;2023-04-24T05:55:23;100098.59;;;8.84;83.83
78016;BME280;67223;51.102;5.882;2023-04-24T05:57:48;100103.03;;;8.53;84.13
78016;BME280;67223;51.102;5.882;2023-04-24T06:00:14;100099.59;;;10.51;81.56
78016;BME280;67223;51.102;5.882;2023-04-24T06:02:40;100100.22;;;8.96;82.62
78016;BME280;67223;51.102;5.882;2023-04-24T06:05:05;100113.63;;;8.64;83.63
78016;BME280;67223;51.102;5.882;2023-04-24T06:07:32;100110.22;;;8.83;82.71
78016;BME280;67223;51.102;5.882;2023-04-24T06:09:57;100119.44;;;8.99;82.79
78016;BME280;67223;51.102;5.882;2023-04-24T06:12:23;100111.34;;;9.01;82.17
78016;BME280;67223;51.102;5.882;2023-04-24T06:14:48;100113.63;;;8.85;82.25
78016;BME280;67223;51.102;5.882;2023-04-24T06:17:14;100121.66;;;8.74;82.51
78016;BME280;67223;51.102;5.882;2023-04-24T06:19:39;100118.22;;;8.83;82.37
78016;BME280;67223;51.102;5.882;2023-04-24T06:22:05;100125.94;;;8.44;82.70
78016;BME280;67223;51.102;5.882;2023-04-24T06:24:31;100131.06;;;8.57;83.26
78016;BME280;67223;51.102;5.882;2023-04-24T06:26:56;100142.78;;;10.06;81.95
78016;BME280;67223;51.102;5.882;2023-04-24T06:29:24;100137.38;;;8.77;82.02
78016;BME280;67223;51.102;5.882;2023-04-24T06:31:49;100166.56;;;9.69;81.53
78016;BME280;67223;51.102;5.882;2023-04-24T06:34:15;100164.91;;;8.87;81.71
78016;BME280;67223;51.102;5.882;2023-04-24T06:36:40;100175.88;;;8.73;83.04
78016;BME280;67223;51.102;5.882;2023-04-24T06:39:06;100190.19;;;10.62;81.64
78016;BME280;67223;51.102;5.882;2023-04-24T06:41:32;100179.47;;;10.14;78.50
78016;BME280;67223;51.102;5.882;2023-04-24T06:43:57;100187.09;;;10.38;77.77
78016;BME280;67223;51.102;5.882;2023-04-24T06:46:23;100194.16;;;9.89;79.28
78016;BME280;67223;51.102;5.882;2023-04-24T06:48:51;100200.19;;;9.51;78.47
78016;BME280;67223;51.102;5.882;2023-04-24T06:51:17;100196.41;;;9.93;75.51
78016;BME280;67223;51.102;5.882;2023-04-24T06:53:43;100192.59;;;10.46;76.20
78016;BME280;67223;51.102;5.882;2023-04-24T06:56:08;100202.47;;;10.05;73.71
78016;BME280;67223;51.102;5.882;2023-04-24T06:58:34;100199.06;;;9.93;74.65
78016;BME280;67223;51.102;5.882;2023-04-24T07:01:00;100189.81;;;10.07;75.36
78016;BME280;67223;51.102;5.882;2023-04-24T07:03:25;100193.78;;;11.18;74.77
78016;BME280;67223;51.102;5.882;2023-04-24T07:05:50;100199.75;;;10.93;75.76
78016;BME280;67223;51.102;5.882;2023-04-24T07:08:16;100195.16;;;9.58;75.28
78016;BME280;67223;51.102;5.882;2023-04-24T07:10:43;100199.50;;;8.87;77.06
78016;BME280;67223;51.102;5.882;2023-04-24T07:13:09;100213.16;;;8.41;79.41
78016;BME280;67223;51.102;5.882;2023-04-24T07:15:34;100219.00;;;9.08;79.73
78016;BME280;67223;51.102;5.882;2023-04-24T07:18:00;100217.88;;;8.37;81.37
78016;BME280;67223;51.102;5.882;2023-04-24T07:20:25;100214.13;;;8.40;82.06
78016;BME280;67223;51.102;5.882;2023-04-24T07:22:51;100217.25;;;9.18;82.03
78016;BME280;67223;51.102;5.882;2023-04-24T07:25:17;100233.22;;;10.09;79.77
78016;BME280;67223;51.102;5.882;2023-04-24T07:27:42;100232.22;;;11.64;74.69
78016;BME280;67223;51.102;5.882;2023-04-24T07:30:08;100240.28;;;9.80;75.10
78016;BME280;67223;51.102;5.882;2023-04-24T07:32:34;100251.19;;;10.76;73.46
78016;BME280;67223;51.102;5.882;2023-04-24T07:35:00;100254.19;;;9.12;76.59
78016;BME280;67223;51.102;5.882;2023-04-24T07:37:25;100245.53;;;9.30;77.15
78016;BME280;67223;51.102;5.882;2023-04-24T07:39:51;100278.44;;;10.01;75.38
78016;BME280;67223;51.102;5.882;2023-04-24T07:42:16;100279.59;;;9.57;76.16
78016;BME280;67223;51.102;5.882;2023-04-24T07:44:42;100279.84;;;10.05;74.11
78016;BME280;67223;51.102;5.882;2023-04-24T07:47:07;100288.38;;;10.29;74.78
78016;BME280;67223;51.102;5.882;2023-04-24T07:49:33;100289.34;;;10.28;73.77
78016;BME280;67223;51.102;5.882;2023-04-24T07:52:00;100294.31;;;9.10;75.94
78016;BME280;67223;51.102;5.882;2023-04-24T07:54:28;100305.31;;;10.19;75.16
78016;BME280;67223;51.102;5.882;2023-04-24T07:56:53;100304.53;;;9.77;76.27
78016;BME280;67223;51.102;5.882;2023-04-24T07:59:19;100319.41;;;11.09;72.88
78016;BME280;67223;51.102;5.882;2023-04-24T08:01:44;100323.31;;;10.26;73.89
78016;BME280;67223;51.102;5.882;2023-04-24T08:04:10;100330.13;;;12.58;70.58
78016;BME280;67223;51.102;5.882;2023-04-24T08:06:35;100339.81;;;11.19;68.82
78016;BME280;67223;51.102;5.882;2023-04-24T08:09:00;100346.00;;;11.30;70.11
78016;BME280;67223;51.102;5.882;2023-04-24T08:11:26;100344.53;;;10.87;72.55
78016;BME280;67223;51.102;5.882;2023-04-24T08:13:52;100348.47;;;10.03;73.94
78016;BME280;67223;51.102;5.882;2023-04-24T08:16:17;100362.06;;;9.17;76.46
78016;BME280;67223;51.102;5.882;2023-04-24T08:18:43;100372.63;;;9.07;77.01
78016;BME280;67223;51.102;5.882;2023-04-24T08:21:08;100379.09;;;9.78;77.38
78016;BME280;67223;51.102;5.882;2023-04-24T08:23:34;100387.75;;;9.18;77.89
78016;BME280;67223;51.102;5.882;2023-04-24T08:25:59;100390.75;;;10.08;76.66
78016;BME280;67223;51.102;5.882;2023-04-24T08:28:25;100394.56;;;9.11;78.32
78016;BME280;67223;51.102;5.882;2023-04-24T08:30:51;100397.75;;;8.94;79.18
78016;BME280;67223;51.102;5.882;2023-04-24T08:33:20;100397.56;;;9.91;78.38
78016;BME280;67223;51.102;5.882;2023-04-24T08:35:45;100414.66;;;9.04;79.35
78016;BME280;67223;51.102;5.882;2023-04-24T08:38:11;100418.44;;;9.33;80.42
78016;BME280;67223;51.102;5.882;2023-04-24T08:40:36;100427.53;;;10.04;79.28
78016;BME280;67223;51.102;5.882;2023-04-24T08:43:03;100424.81;;;9.21;79.32
78016;BME280;67223;51.102;5.882;2023-04-24T08:45:29;100437.94;;;9.34;79.85
78016;BME280;67223;51.102;5.882;2023-04-24T08:47:54;100432.56;;;9.13;80.54
78016;BME280;67223;51.102;5.882;2023-04-24T08:50:21;100444.81;;;9.04;80.59
78016;BME280;67223;51.102;5.882;2023-04-24T08:52:49;100438.66;;;8.93;80.92
78016;BME280;67223;51.102;5.882;2023-04-24T08:55:15;100450.81;;;9.61;80.35
78016;BME280;67223;51.102;5.882;2023-04-24T08:57:44;100450.50;;;9.11;80.58
78016;BME280;67223;51.102;5.882;2023-04-24T09:00:11;100457.50;;;9.97;79.08
78016;BME280;67223;51.102;5.882;2023-04-24T09:02:36;100463.03;;;9.31;80.14
78016;BME280;67223;51.102;5.882;2023-04-24T09:05:04;100458.13;;;9.47;79.54
78016;BME280;67223;51.102;5.882;2023-04-24T09:07:32;100472.00;;;10.35;77.59
78016;BME280;67223;51.102;5.882;2023-04-24T09:10:01;100473.28;;;10.00;78.74
78016;BME280;67223;51.102;5.882;2023-04-24T09:12:26;100480.72;;;9.64;77.93
78016;BME280;67223;51.102;5.882;2023-04-24T09:14:52;100485.50;;;9.49;78.55
78016;BME280;67223;51.102;5.882;2023-04-24T09:17:18;100493.19;;;10.16;78.68
78016;BME280;67223;51.102;5.882;2023-04-24T09:19:43;100488.25;;;9.91;77.58
78016;BME280;67223;51.102;5.882;2023-04-24T09:22:09;100491.88;;;9.26;79.41
78016;BME280;67223;51.102;5.882;2023-04-24T09:24:36;100497.59;;;9.85;78.49
78016;BME280;67223;51.102;5.882;2023-04-24T09:27:01;100493.31;;;9.30;79.77
78016;BME280;67223;51.102;5.882;2023-04-24T09:29:27;100498.75;;;9.29;81.08
78016;BME280;67223;51.102;5.882;2023-04-24T09:31:53;100508.25;;;10.06;79.46
78016;BME280;67223;51.102;5.882;2023-04-24T09:34:23;100498.56;;;9.52;80.08
78016;BME280;67223;51.102;5.882;2023-04-24T09:36:49;100518.69;;;10.09;79.56
78016;BME280;67223;51.102;5.882;2023-04-24T09:39:16;100515.03;;;9.89;79.36
78016;BME280;67223;51.102;5.882;2023-04-24T09:41:50;100520.03;;;9.83;79.50
78016;BME280;67223;51.102;5.882;2023-04-24T09:44:18;100506.94;;;9.48;80.31
78016;BME280;67223;51.102;5.882;2023-04-24T09:46:54;100521.88;;;10.35;78.60
78016;BME280;67223;51.102;5.882;2023-04-24T09:49:26;100520.16;;;9.81;78.52
78016;BME280;67223;51.102;5.882;2023-04-24T09:52:06;100533.13;;;9.86;79.27
78016;BME280;67223;51.102;5.882;2023-04-24T09:54:31;100530.88;;;10.95;75.95
78016;BME280;67223;51.102;5.882;2023-04-24T09:56:57;100527.44;;;10.53;76.20
78016;BME280;67223;51.102;5.882;2023-04-24T09:59:22;100536.03;;;11.27;74.82
78016;BME280;67223;51.102;5.882;2023-04-24T10:01:48;100537.34;;;11.51;71.54
78016;BME280;67223;51.102;5.882;2023-04-24T10:04:19;100545.72;;;10.57;72.85
78016;BME280;67223;51.102;5.882;2023-04-24T10:06:46;100558.41;;;10.86;74.62
78016;BME280;67223;51.102;5.882;2023-04-24T10:09:12;100550.97;;;11.29;73.85
78016;BME280;67223;51.102;5.882;2023-04-24T10:11:42;100552.31;;;11.63;74.20
78016;BME280;67223;51.102;5.882;2023-04-24T10:14:11;100561.47;;;11.71;72.94
78016;BME280;67223;51.102;5.882;2023-04-24T10:16:38;100569.13;;;12.33;74.24
78016;BME280;67223;51.102;5.882;2023-04-24T10:19:04;100563.88;;;12.60;70.43
78016;BME280;67223;51.102;5.882;2023-04-24T10:21:30;100558.75;;;12.76;70.22
78016;BME280;67223;51.102;5.882;2023-04-24T10:23:57;100556.34;;;13.47;68.34
78016;BME280;67223;51.102;5.882;2023-04-24T10:26:25;100553.47;;;13.76;66.89
78016;BME280;67223;51.102;5.882;2023-04-24T10:28:52;100563.59;;;13.64;66.02
78016;BME280;67223;51.102;5.882;2023-04-24T10:31:18;100553.97;;;13.44;66.84
78016;BME280;67223;51.102;5.882;2023-04-24T10:33:45;100570.28;;;12.86;65.70
78016;BME280;67223;51.102;5.882;2023-04-24T10:36:12;100573.94;;;12.20;66.73
78016;BME280;67223;51.102;5.882;2023-04-24T10:38:40;100572.44;;;12.73;66.07
78016;BME280;67223;51.102;5.882;2023-04-24T10:41:11;100573.16;;;12.56;65.37
78016;BME280;67223;51.102;5.882;2023-04-24T10:43:44;100570.03;;;12.80;65.56
78016;BME280;67223;51.102;5.882;2023-04-24T10:46:10;100574.53;;;12.79;63.43
78016;BME280;67223;51.102;5.882;2023-04-24T10:48:36;100584.13;;;12.82;64.17
78016;BME280;67223;51.102;5.882;2023-04-24T10:51:11;100590.66;;;12.50;63.95
78016;BME280;67223;51.102;5.882;2023-04-24T10:53:37;100580.78;;;12.51;66.20
78016;BME280;67223;51.102;5.882;2023-04-24T10:56:05;100589.13;;;12.48;66.77
78016;BME280;67223;51.102;5.882;2023-04-24T11:01:32;100595.63;;;12.55;65.87
78016;BME280;67223;51.102;5.882;2023-04-24T11:04:02;100613.31;;;11.30;67.46
78016;BME280;67223;51.102;5.882;2023-04-24T11:06:35;100604.63;;;11.47;68.99
78016;BME280;67223;51.102;5.882;2023-04-24T11:09:10;100611.38;;;11.51;70.46
78016;BME280;67223;51.102;5.882;2023-04-24T11:11:38;100621.34;;;11.39;70.98
78016;BME280;67223;51.102;5.882;2023-04-24T11:14:09;100624.59;;;11.43;71.74
78016;BME280;67223;51.102;5.882;2023-04-24T11:21:54;100625.63;;;11.21;69.01
78016;BME280;67223;51.102;5.882;2023-04-24T11:24:27;100643.97;;;11.65;70.71
78016;BME280;67223;51.102;5.882;2023-04-24T11:29:22;100640.44;;;11.25;69.17
78016;BME280;67223;51.102;5.882;2023-04-24T11:31:48;100635.88;;;11.86;69.16
78016;BME280;67223;51.102;5.882;2023-04-24T11:34:16;100647.28;;;11.48;67.26
78016;BME280;67223;51.102;5.882;2023-04-24T11:36:44;100642.47;;;11.73;65.16
78016;BME280;67223;51.102;5.882;2023-04-24T11:39:10;100650.69;;;11.90;64.43
78016;BME280;67223;51.102;5.882;2023-04-24T11:41:37;100653.41;;;12.58;64.62
78016;BME280;67223;51.102;5.882;2023-04-24T11:44:06;100651.53;;;12.77;65.08
78016;BME280;67223;51.102;5.882;2023-04-24T11:46:31;100658.53;;;13.17;63.45
78016;BME280;67223;51.102;5.882;2023-04-24T11:48:58;100669.72;;;13.49;60.88
78016;BME280;67223;51.102;5.882;2023-04-24T11:51:24;100670.44;;;12.95;59.95
78016;BME280;67223;51.102;5.882;2023-04-24T11:53:51;100675.38;;;12.71;59.24
78016;BME280;67223;51.102;5.882;2023-04-24T11:56:21;100673.84;;;12.30;58.78
78016;BME280;67223;51.102;5.882;2023-04-24T11:58:47;100684.84;;;12.75;59.59
78016;BME280;67223;51.102;5.882;2023-04-24T12:01:13;100683.50;;;13.08;59.95
78016;BME280;67223;51.102;5.882;2023-04-24T12:03:39;100676.78;;;12.17;59.37
78016;BME280;67223;51.102;5.882;2023-04-24T12:06:09;100688.22;;;12.29;60.99
78016;BME280;67223;51.102;5.882;2023-04-24T12:08:35;100694.25;;;12.31;61.64
78016;BME280;67223;51.102;5.882;2023-04-24T12:11:01;100689.06;;;12.39;60.01
78016;BME280;67223;51.102;5.882;2023-04-24T12:13:28;100696.38;;;12.37;60.50
78016;BME280;67223;51.102;5.882;2023-04-24T12:15:53;100700.03;;;12.17;59.57
78016;BME280;67223;51.102;5.882;2023-04-24T12:18:22;100699.50;;;12.42;59.29
78016;BME280;67223;51.102;5.882;2023-04-24T12:20:48;100713.72;;;12.90;58.71
78016;BME280;67223;51.102;5.882;2023-04-24T12:23:14;100706.94;;;12.10;60.10
78016;BME280;67223;51.102;5.882;2023-04-24T12:25:39;100702.97;;;12.04;59.92
78016;BME280;67223;51.102;5.882;2023-04-24T12:30:40;100702.66;;;11.97;62.52
78016;BME280;67223;51.102;5.882;2023-04-24T12:33:05;100701.03;;;12.25;60.39
78016;BME280;67223;51.102;5.882;2023-04-24T12:35:32;100703.09;;;12.02;60.84
78016;BME280;67223;51.102;5.882;2023-04-24T12:38:15;100709.34;;;12.22;61.44
78016;BME280;67223;51.102;5.882;2023-04-24T12:40:42;100713.56;;;13.21;60.33
78016;BME280;67223;51.102;5.882;2023-04-24T12:43:15;100718.75;;;13.32;59.30
78016;BME280;67223;51.102;5.882;2023-04-24T12:45:41;100719.22;;;12.50;57.90
78016;BME280;67223;51.102;5.882;2023-04-24T12:48:06;100717.38;;;12.70;58.09
78016;BME280;67223;51.102;5.882;2023-04-24T12:50:32;100716.72;;;12.68;58.05
78016;BME280;67223;51.102;5.882;2023-04-24T12:52:57;100716.97;;;12.46;57.83
78016;BME280;67223;51.102;5.882;2023-04-24T12:55:23;100718.44;;;12.00;59.26
78016;BME280;67223;51.102;5.882;2023-04-24T12:57:48;100714.16;;;12.67;58.27
78016;BME280;67223;51.102;5.882;2023-04-24T13:00:14;100719.94;;;12.81;59.45
78016;BME280;67223;51.102;5.882;2023-04-24T13:02:40;100730.25;;;13.15;56.82
78016;BME280;67223;51.102;5.882;2023-04-24T13:05:05;100722.91;;;12.88;58.21
78016;BME280;67223;51.102;5.882;2023-04-24T13:07:31;100732.06;;;13.24;57.08